createdAt,value
2022-12-11T00:04:22.259Z,-0.01
2022-12-11T00:09:25.462Z,-0.10
2022-12-11T00:14:38.395Z,-0.02
2022-12-11T00:19:49.579Z,0.00
2022-12-11T00:24:54.193Z,-0.05
2022-12-11T00:30:46.021Z,-0.12
2022-12-11T00:36:49.058Z,-0.14
2022-12-11T00:41:59.336Z,-0.11
2022-12-11T00:47:02.213Z,-0.08
2022-12-11T00:52:15.110Z,-0.02
2022-12-11T00:57:31.096Z,-0.12
2022-12-11T01:02:45.723Z,-0.09
2022-12-11T01:07:52.427Z,-0.07
2022-12-11T01:13:07.268Z,0.00
2022-12-11T01:18:10.920Z,-0.11
2022-12-11T01:23:13.522Z,-0.06
2022-12-11T01:28:22.799Z,0.03
2022-12-11T01:33:30.096Z,0.03
2022-12-11T01:38:43.251Z,-0.08
2022-12-11T01:44:13.233Z,-0.04
2022-12-11T01:49:17.127Z,-0.08
2022-12-11T01:54:23.975Z,0.01
2022-12-11T02:00:24.492Z,-0.15
2022-12-11T02:05:19.666Z,-0.05
2022-12-11T02:17:03.143Z,0.00
2022-12-11T02:22:13.135Z,0.04
2022-12-11T02:27:27.032Z,0.06
2022-12-11T02:33:04.611Z,0.00
2022-12-11T02:38:15.539Z,-0.07
2022-12-11T02:43:30.980Z,0.01
2022-12-11T02:48:34.558Z,0.03
2022-12-11T02:53:47.652Z,0.04
2022-12-11T02:59:04.531Z,0.00
2022-12-11T03:04:06.097Z,-0.02
2022-12-11T03:09:08.280Z,0.00
2022-12-11T03:14:09.838Z,0.04
2022-12-11T03:19:24.061Z,-0.09
2022-12-11T03:24:38.027Z,-0.12
2022-12-11T03:29:48.254Z,-0.11
2022-12-11T03:34:59.106Z,-0.05
2022-12-11T03:40:06.835Z,-0.02
2022-12-11T03:45:09.778Z,-0.05
2022-12-11T03:50:16.234Z,-0.08
2022-12-11T03:55:20.317Z,-0.18
2022-12-11T04:00:21.996Z,-0.06
2022-12-11T04:05:23.494Z,-0.08
2022-12-11T04:10:24.978Z,-0.07
2022-12-11T04:15:26.697Z,-0.05
2022-12-11T04:20:28.335Z,-0.04
2022-12-11T04:25:30.060Z,-0.08
2022-12-11T04:30:34.275Z,-0.02
2022-12-11T04:35:36.147Z,-0.16
2022-12-11T04:40:37.634Z,-0.05
2022-12-11T04:45:39.140Z,-0.06
2022-12-11T04:50:40.648Z,-0.02
2022-12-11T04:55:44.722Z,-0.06
2022-12-11T05:00:46.584Z,-0.05
2022-12-11T05:05:57.262Z,-0.07
2022-12-11T05:11:03.128Z,-0.03
2022-12-11T05:16:06.176Z,-0.05
2022-12-11T05:21:59.279Z,-0.07
2022-12-11T05:27:01.699Z,-0.04
2022-12-11T05:32:04.113Z,0.05
2022-12-11T05:37:16.880Z,-0.02
2022-12-11T05:42:25.558Z,-0.06
2022-12-11T05:47:31.171Z,-0.03
2022-12-11T05:52:32.660Z,-0.09
2022-12-11T05:58:01.327Z,-0.09
2022-12-11T06:03:11.115Z,-0.06
2022-12-11T06:08:12.709Z,-0.04
2022-12-11T06:13:28.343Z,-0.07
2022-12-11T06:35:35.143Z,-0.12
2022-12-11T06:46:50.854Z,-0.03
2022-12-11T06:51:52.316Z,-0.08
2022-12-11T06:56:55.883Z,0.04
2022-12-11T07:02:00.107Z,-0.04
2022-12-11T07:07:01.889Z,-0.03
2022-12-11T07:12:09.458Z,-0.06
2022-12-11T07:17:11.094Z,-0.05
2022-12-11T07:22:17.410Z,-0.25
2022-12-11T07:27:18.795Z,0.08
2022-12-11T07:32:20.265Z,0.04
2022-12-11T07:42:45.950Z,-0.02
2022-12-11T07:47:58.141Z,-0.01
2022-12-11T07:58:33.308Z,0.09
2022-12-11T08:03:39.994Z,0.09
2022-12-11T08:08:50.533Z,0.09
2022-12-11T08:14:00.783Z,0.10
2022-12-11T08:19:22.761Z,0.08
2022-12-11T08:29:42.125Z,0.15
2022-12-11T08:34:48.230Z,0.22
2022-12-11T08:39:49.608Z,0.28
2022-12-11T08:44:54.037Z,0.36
2022-12-11T08:49:55.538Z,0.36
2022-12-11T08:54:58.065Z,0.43
2022-12-11T08:59:59.701Z,0.38
2022-12-11T09:05:09.260Z,0.52
2022-12-11T09:10:11.100Z,0.62
2022-12-11T09:15:13.073Z,0.63
2022-12-11T09:20:44.491Z,0.78
2022-12-11T09:25:45.993Z,0.87
2022-12-11T09:30:50.141Z,0.90
2022-12-11T09:35:59.152Z,1.02
2022-12-11T09:41:00.960Z,1.07
2022-12-11T09:46:10.262Z,1.14
2022-12-11T09:51:25.986Z,1.38
2022-12-11T09:56:40.097Z,1.32
2022-12-11T10:02:36.817Z,1.27
2022-12-11T10:07:50.313Z,1.29
2022-12-11T10:13:06.835Z,1.34
2022-12-11T10:18:15.870Z,1.33
2022-12-11T10:23:28.794Z,1.40
2022-12-11T10:28:30.246Z,1.45
2022-12-11T10:33:49.471Z,1.50
2022-12-11T10:38:51.029Z,1.45
2022-12-11T10:43:53.436Z,1.45
2022-12-11T10:48:58.017Z,1.44
2022-12-11T10:54:07.490Z,1.22
2022-12-11T10:59:24.127Z,1.32
2022-12-11T11:04:36.014Z,1.30
2022-12-11T11:09:37.403Z,1.13
2022-12-11T11:14:38.869Z,1.03
2022-12-11T11:19:40.429Z,1.16
2022-12-11T11:24:45.780Z,1.30
2022-12-11T11:29:52.803Z,1.28
2022-12-11T11:35:06.067Z,1.41
2022-12-11T11:40:27.935Z,1.56
2022-12-11T11:46:02.579Z,1.62
2022-12-11T11:51:13.846Z,1.75
2022-12-11T11:56:26.894Z,1.69
2022-12-11T12:01:29.215Z,1.73
2022-12-11T12:06:50.388Z,1.72
2022-12-11T12:12:00.128Z,1.69
2022-12-11T12:17:26.000Z,1.71
2022-12-11T12:22:36.424Z,1.72
2022-12-11T12:28:00.777Z,1.76
2022-12-11T12:33:20.305Z,1.78
2022-12-11T12:38:23.445Z,1.85
2022-12-11T12:43:37.233Z,2.13
2022-12-11T12:48:39.161Z,2.43
2022-12-11T12:53:44.332Z,2.48
2022-12-11T12:58:46.401Z,2.96
2022-12-11T13:03:55.089Z,3.00
2022-12-11T13:08:56.954Z,3.29
2022-12-11T13:14:08.725Z,3.33
2022-12-11T13:19:22.792Z,3.27
2022-12-11T13:24:27.519Z,2.96
2022-12-11T13:29:32.021Z,2.80
2022-12-11T13:34:36.994Z,2.62
2022-12-11T13:39:40.162Z,2.50
2022-12-11T13:44:42.586Z,2.46
2022-12-11T13:49:47.099Z,2.27
2022-12-11T13:54:51.052Z,2.06
2022-12-11T13:59:54.766Z,2.06
2022-12-11T14:05:00.739Z,1.80
2022-12-11T14:10:15.893Z,1.85
2022-12-11T14:15:17.472Z,1.74
2022-12-11T14:20:22.529Z,1.69
2022-12-11T14:25:26.767Z,1.65
2022-12-11T14:30:31.723Z,1.62
2022-12-11T14:35:39.349Z,1.49
2022-12-11T14:40:43.558Z,1.50
2022-12-11T14:45:49.131Z,1.53
2022-12-11T14:50:53.430Z,1.51
2022-12-11T14:55:57.888Z,1.40
2022-12-11T15:01:05.623Z,1.41
2022-12-11T15:06:30.072Z,1.34
2022-12-11T15:11:32.256Z,1.36
2022-12-11T15:16:37.206Z,1.34
2022-12-11T15:21:38.670Z,1.42
2022-12-11T15:26:46.491Z,1.36
2022-12-11T15:32:17.909Z,1.27
2022-12-11T15:37:21.920Z,1.24
2022-12-11T15:42:31.797Z,1.25
2022-12-11T15:47:33.372Z,1.26
2022-12-11T15:52:34.809Z,1.19
2022-12-11T15:57:36.960Z,1.17
2022-12-11T16:02:38.439Z,1.14
2022-12-11T16:07:40.361Z,1.16
2022-12-11T16:12:41.927Z,1.22
2022-12-11T16:17:43.312Z,1.20
2022-12-11T16:22:44.726Z,1.22
2022-12-11T16:27:46.049Z,1.20
2022-12-11T16:32:47.434Z,1.25
2022-12-11T16:37:50.155Z,1.23
2022-12-11T16:42:51.720Z,1.13
2022-12-11T16:47:53.386Z,1.09
2022-12-11T16:52:54.685Z,1.00
2022-12-11T16:57:56.105Z,1.11
2022-12-11T17:02:57.568Z,1.08
2022-12-11T17:07:59.324Z,1.11
2022-12-11T17:13:00.785Z,1.07
2022-12-11T17:18:02.109Z,1.05
2022-12-11T17:23:03.530Z,1.00
2022-12-11T17:28:04.992Z,1.00
2022-12-11T17:33:06.698Z,1.00
2022-12-11T17:38:09.269Z,0.96
2022-12-11T17:43:12.060Z,1.03
2022-12-11T17:48:13.920Z,1.02
2022-12-11T17:53:17.652Z,1.01
2022-12-11T17:58:23.244Z,1.00
2022-12-11T18:03:26.319Z,0.99
2022-12-11T18:08:27.846Z,0.93
2022-12-11T18:13:29.248Z,0.98
2022-12-11T18:18:30.767Z,0.91
2022-12-11T18:23:32.452Z,0.90
2022-12-11T18:28:33.864Z,0.81
2022-12-11T18:33:37.734Z,0.78
2022-12-11T18:38:40.107Z,0.81
2022-12-11T18:43:41.826Z,0.78
2022-12-11T18:48:44.405Z,0.81
2022-12-11T18:53:46.414Z,0.79
2022-12-11T18:58:48.602Z,0.77
2022-12-11T19:03:50.853Z,0.76
2022-12-11T19:08:52.673Z,0.82
2022-12-11T19:13:54.602Z,0.79
2022-12-11T19:18:58.349Z,0.77
2022-12-11T19:23:59.685Z,0.78
2022-12-11T19:29:01.420Z,0.75
2022-12-11T19:34:02.884Z,0.75
2022-12-11T19:39:09.815Z,0.82
2022-12-11T19:44:14.143Z,0.80
2022-12-11T19:49:15.775Z,0.81
2022-12-11T19:54:17.605Z,0.84
2022-12-11T19:59:19.074Z,0.87
2022-12-11T20:04:20.526Z,0.88
2022-12-11T20:09:22.279Z,0.85
2022-12-11T20:14:26.005Z,0.87
2022-12-11T20:19:27.538Z,0.79
2022-12-11T20:24:28.937Z,0.74
2022-12-11T20:29:30.520Z,0.77
2022-12-11T20:34:31.941Z,0.75
2022-12-11T20:39:33.690Z,0.72
2022-12-11T20:44:35.056Z,0.72
2022-12-11T20:49:36.521Z,0.78
2022-12-11T20:54:37.935Z,0.73
2022-12-11T20:59:39.379Z,0.75
2022-12-11T21:04:41.209Z,0.71
2022-12-11T21:09:42.894Z,0.72
2022-12-11T21:14:44.444Z,0.65
2022-12-11T21:19:45.803Z,0.61
2022-12-11T21:24:47.216Z,0.59
2022-12-11T21:29:48.735Z,0.59
2022-12-11T21:34:51.483Z,0.53
2022-12-11T21:39:56.385Z,0.50
2022-12-11T21:50:19.243Z,0.34
2022-12-11T21:55:20.604Z,0.17
2022-12-11T22:00:22.408Z,0.11
2022-12-11T22:05:23.730Z,0.11
2022-12-11T22:10:25.254Z,0.04
2022-12-11T22:15:26.580Z,-0.05
2022-12-11T22:20:28.831Z,-0.16
2022-12-11T22:25:30.296Z,-0.07
2022-12-11T22:30:32.053Z,-0.08
2022-12-11T22:35:33.532Z,-0.02
2022-12-11T22:40:38.527Z,-0.02
2022-12-11T22:45:40.236Z,-0.02
2022-12-11T22:50:42.177Z,-0.02
2022-12-11T22:55:43.524Z,0.06
2022-12-11T23:00:45.029Z,0.03
2022-12-11T23:05:46.497Z,0.09
2022-12-11T23:10:47.921Z,0.10
2022-12-11T23:15:49.300Z,0.13
2022-12-11T23:20:50.857Z,0.18
2022-12-11T23:25:52.341Z,0.20
2022-12-11T23:30:53.792Z,0.25
2022-12-11T23:35:55.185Z,0.27
2022-12-11T23:40:59.161Z,0.26
2022-12-11T23:46:00.562Z,0.27
2022-12-11T23:51:03.844Z,0.24
2022-12-11T23:56:08.041Z,0.24
